sensor_id;sensor_type;location;lat;lon;timestamp;P1;durP1;ratioP1;P2;durP2;ratioP2
72920;SDS011;61064;51.654;5.476;2023-06-04T00:02:03;6.97;;;1.30;;
72920;SDS011;61064;51.654;5.476;2023-06-04T00:04:28;4.63;;;1.20;;
72920;SDS011;61064;51.654;5.476;2023-06-04T00:06:55;5.35;;;1.25;;
72920;SDS011;61064;51.654;5.476;2023-06-04T00:09:20;5.57;;;1.10;;
72920;SDS011;61064;51.654;5.476;2023-06-04T00:11:46;5.77;;;1.37;;
72920;SDS011;61064;51.654;5.476;2023-06-04T00:14:13;4.63;;;1.10;;
72920;SDS011;61064;51.654;5.476;2023-06-04T00:16:39;5.97;;;1.40;;
72920;SDS011;61064;51.654;5.476;2023-06-04T00:19:05;7.38;;;1.17;;
72920;SDS011;61064;51.654;5.476;2023-06-04T00:21:31;5.68;;;1.27;;
72920;SDS011;61064;51.654;5.476;2023-06-04T00:23:56;4.33;;;1.00;;
72920;SDS011;61064;51.654;5.476;2023-06-04T00:26:22;5.33;;;1.20;;
72920;SDS011;61064;51.654;5.476;2023-06-04T00:28:47;5.43;;;1.17;;
72920;SDS011;61064;51.654;5.476;2023-06-04T00:31:12;6.90;;;1.37;;
72920;SDS011;61064;51.654;5.476;2023-06-04T00:33:41;6.37;;;1.30;;
72920;SDS011;61064;51.654;5.476;2023-06-04T00:36:06;7.70;;;1.50;;
72920;SDS011;61064;51.654;5.476;2023-06-04T00:38:32;5.97;;;1.63;;
72920;SDS011;61064;51.654;5.476;2023-06-04T00:40:57;6.13;;;1.30;;
72920;SDS011;61064;51.654;5.476;2023-06-04T00:43:23;5.77;;;1.30;;
72920;SDS011;61064;51.654;5.476;2023-06-04T00:45:50;6.03;;;1.50;;
72920;SDS011;61064;51.654;5.476;2023-06-04T00:48:17;5.55;;;1.23;;
72920;SDS011;61064;51.654;5.476;2023-06-04T00:50:42;5.17;;;1.13;;
72920;SDS011;61064;51.654;5.476;2023-06-04T00:53:08;4.53;;;1.10;;
72920;SDS011;61064;51.654;5.476;2023-06-04T00:55:35;4.43;;;1.27;;
72920;SDS011;61064;51.654;5.476;2023-06-04T00:58:01;5.93;;;1.30;;
72920;SDS011;61064;51.654;5.476;2023-06-04T01:00:29;4.43;;;1.10;;
72920;SDS011;61064;51.654;5.476;2023-06-04T01:02:54;7.78;;;1.13;;
72920;SDS011;61064;51.654;5.476;2023-06-04T01:05:26;5.27;;;1.20;;
72920;SDS011;61064;51.654;5.476;2023-06-04T01:07:59;5.25;;;1.15;;
72920;SDS011;61064;51.654;5.476;2023-06-04T01:10:25;5.28;;;1.33;;
72920;SDS011;61064;51.654;5.476;2023-06-04T01:12:50;4.90;;;1.20;;
72920;SDS011;61064;51.654;5.476;2023-06-04T01:15:16;6.15;;;1.45;;
72920;SDS011;61064;51.654;5.476;2023-06-04T01:17:42;4.37;;;1.20;;
72920;SDS011;61064;51.654;5.476;2023-06-04T01:27:54;6.55;;;1.42;;
72920;SDS011;61064;51.654;5.476;2023-06-04T01:30:25;6.20;;;1.10;;
72920;SDS011;61064;51.654;5.476;2023-06-04T01:32:56;4.70;;;1.20;;
72920;SDS011;61064;51.654;5.476;2023-06-04T01:35:22;6.43;;;1.20;;
72920;SDS011;61064;51.654;5.476;2023-06-04T01:37:47;5.40;;;1.50;;
72920;SDS011;61064;51.654;5.476;2023-06-04T01:40:14;5.60;;;1.33;;
72920;SDS011;61064;51.654;5.476;2023-06-04T01:42:40;6.07;;;1.30;;
72920;SDS011;61064;51.654;5.476;2023-06-04T01:45:06;5.18;;;1.25;;
72920;SDS011;61064;51.654;5.476;2023-06-04T01:47:32;5.93;;;1.40;;
72920;SDS011;61064;51.654;5.476;2023-06-04T01:49:58;4.57;;;1.13;;
72920;SDS011;61064;51.654;5.476;2023-06-04T01:52:24;5.90;;;1.60;;
72920;SDS011;61064;51.654;5.476;2023-06-04T01:54:50;3.97;;;1.10;;
72920;SDS011;61064;51.654;5.476;2023-06-04T01:57:17;7.18;;;1.38;;
72920;SDS011;61064;51.654;5.476;2023-06-04T01:59:44;7.20;;;1.40;;
72920;SDS011;61064;51.654;5.476;2023-06-04T02:02:09;5.67;;;1.30;;
72920;SDS011;61064;51.654;5.476;2023-06-04T02:04:35;5.67;;;1.27;;
72920;SDS011;61064;51.654;5.476;2023-06-04T02:07:02;4.80;;;1.20;;
72920;SDS011;61064;51.654;5.476;2023-06-04T02:09:28;5.77;;;1.63;;
72920;SDS011;61064;51.654;5.476;2023-06-04T02:11:53;6.20;;;1.37;;
72920;SDS011;61064;51.654;5.476;2023-06-04T02:14:18;7.73;;;1.53;;
72920;SDS011;61064;51.654;5.476;2023-06-04T02:16:44;5.63;;;1.20;;
72920;SDS011;61064;51.654;5.476;2023-06-04T02:19:10;4.55;;;1.00;;
72920;SDS011;61064;51.654;5.476;2023-06-04T02:21:37;4.53;;;1.30;;
72920;SDS011;61064;51.654;5.476;2023-06-04T02:24:03;5.95;;;1.23;;
72920;SDS011;61064;51.654;5.476;2023-06-04T02:26:28;5.10;;;1.20;;
72920;SDS011;61064;51.654;5.476;2023-06-04T02:28:54;5.47;;;1.20;;
72920;SDS011;61064;51.654;5.476;2023-06-04T02:31:20;6.22;;;1.40;;
72920;SDS011;61064;51.654;5.476;2023-06-04T02:33:46;4.63;;;1.17;;
72920;SDS011;61064;51.654;5.476;2023-06-04T02:36:11;4.87;;;1.47;;
72920;SDS011;61064;51.654;5.476;2023-06-04T02:38:37;6.43;;;1.30;;
72920;SDS011;61064;51.654;5.476;2023-06-04T02:41:02;4.25;;;1.20;;
72920;SDS011;61064;51.654;5.476;2023-06-04T02:43:28;6.40;;;1.37;;
72920;SDS011;61064;51.654;5.476;2023-06-04T02:45:53;5.90;;;1.40;;
72920;SDS011;61064;51.654;5.476;2023-06-04T02:48:18;5.83;;;1.40;;
72920;SDS011;61064;51.654;5.476;2023-06-04T02:50:44;5.97;;;1.35;;
72920;SDS011;61064;51.654;5.476;2023-06-04T02:53:10;6.00;;;1.57;;
72920;SDS011;61064;51.654;5.476;2023-06-04T02:55:40;6.70;;;1.58;;
72920;SDS011;61064;51.654;5.476;2023-06-04T02:58:06;5.87;;;1.50;;
72920;SDS011;61064;51.654;5.476;2023-06-04T03:00:33;8.13;;;1.55;;
72920;SDS011;61064;51.654;5.476;2023-06-04T03:02:59;5.72;;;1.30;;
72920;SDS011;61064;51.654;5.476;2023-06-04T03:05:27;6.53;;;1.45;;
72920;SDS011;61064;51.654;5.476;2023-06-04T03:07:52;7.20;;;1.50;;
72920;SDS011;61064;51.654;5.476;2023-06-04T03:10:18;5.35;;;1.55;;
72920;SDS011;61064;51.654;5.476;2023-06-04T03:12:44;5.90;;;1.70;;
72920;SDS011;61064;51.654;5.476;2023-06-04T03:15:09;6.00;;;1.35;;
72920;SDS011;61064;51.654;5.476;2023-06-04T03:17:35;5.60;;;1.40;;
72920;SDS011;61064;51.654;5.476;2023-06-04T03:20:01;6.30;;;1.20;;
72920;SDS011;61064;51.654;5.476;2023-06-04T03:22:26;5.37;;;1.60;;
72920;SDS011;61064;51.654;5.476;2023-06-04T03:24:53;5.18;;;1.60;;
72920;SDS011;61064;51.654;5.476;2023-06-04T03:27:18;5.30;;;1.50;;
72920;SDS011;61064;51.654;5.476;2023-06-04T03:29:45;8.63;;;1.40;;
72920;SDS011;61064;51.654;5.476;2023-06-04T03:32:10;7.68;;;1.70;;
72920;SDS011;61064;51.654;5.476;2023-06-04T03:34:37;4.47;;;1.10;;
72920;SDS011;61064;51.654;5.476;2023-06-04T03:37:03;8.70;;;1.60;;
72920;SDS011;61064;51.654;5.476;2023-06-04T03:39:28;5.50;;;1.40;;
72920;SDS011;61064;51.654;5.476;2023-06-04T03:41:55;4.15;;;1.27;;
72920;SDS011;61064;51.654;5.476;2023-06-04T03:44:21;5.80;;;1.60;;
72920;SDS011;61064;51.654;5.476;2023-06-04T03:46:47;5.30;;;1.50;;
72920;SDS011;61064;51.654;5.476;2023-06-04T03:49:13;6.80;;;1.50;;
72920;SDS011;61064;51.654;5.476;2023-06-04T03:51:38;6.53;;;1.80;;
72920;SDS011;61064;51.654;5.476;2023-06-04T03:54:05;5.65;;;1.45;;
72920;SDS011;61064;51.654;5.476;2023-06-04T03:56:30;6.75;;;1.80;;
72920;SDS011;61064;51.654;5.476;2023-06-04T03:58:56;6.10;;;1.60;;
72920;SDS011;61064;51.654;5.476;2023-06-04T04:01:22;6.90;;;1.70;;
72920;SDS011;61064;51.654;5.476;2023-06-04T04:03:48;5.72;;;1.45;;
72920;SDS011;61064;51.654;5.476;2023-06-04T04:06:14;6.47;;;1.70;;
72920;SDS011;61064;51.654;5.476;2023-06-04T04:08:40;6.13;;;1.60;;
72920;SDS011;61064;51.654;5.476;2023-06-04T04:11:13;6.47;;;1.50;;
72920;SDS011;61064;51.654;5.476;2023-06-04T04:13:40;6.25;;;1.52;;
72920;SDS011;61064;51.654;5.476;2023-06-04T04:16:05;5.37;;;1.50;;
72920;SDS011;61064;51.654;5.476;2023-06-04T04:18:34;5.27;;;1.53;;
72920;SDS011;61064;51.654;5.476;2023-06-04T04:21:01;6.77;;;1.60;;
72920;SDS011;61064;51.654;5.476;2023-06-04T04:23:27;5.38;;;1.70;;
72920;SDS011;61064;51.654;5.476;2023-06-04T04:25:53;6.80;;;1.50;;
72920;SDS011;61064;51.654;5.476;2023-06-04T04:28:21;7.13;;;1.55;;
72920;SDS011;61064;51.654;5.476;2023-06-04T04:30:47;5.37;;;1.40;;
72920;SDS011;61064;51.654;5.476;2023-06-04T04:33:13;6.88;;;1.42;;
72920;SDS011;61064;51.654;5.476;2023-06-04T04:35:41;6.90;;;1.60;;
72920;SDS011;61064;51.654;5.476;2023-06-04T04:38:07;6.00;;;1.40;;
72920;SDS011;61064;51.654;5.476;2023-06-04T04:40:33;5.93;;;1.50;;
72920;SDS011;61064;51.654;5.476;2023-06-04T04:42:58;6.33;;;1.67;;
72920;SDS011;61064;51.654;5.476;2023-06-04T04:45:24;5.77;;;1.50;;
72920;SDS011;61064;51.654;5.476;2023-06-04T04:47:49;6.07;;;1.40;;
72920;SDS011;61064;51.654;5.476;2023-06-04T04:50:16;8.68;;;1.70;;
72920;SDS011;61064;51.654;5.476;2023-06-04T04:52:42;6.80;;;1.50;;
72920;SDS011;61064;51.654;5.476;2023-06-04T04:55:07;7.40;;;1.40;;
72920;SDS011;61064;51.654;5.476;2023-06-04T04:57:33;9.07;;;1.55;;
72920;SDS011;61064;51.654;5.476;2023-06-04T04:59:58;6.83;;;1.73;;
72920;SDS011;61064;51.654;5.476;2023-06-04T05:02:24;5.70;;;1.60;;
72920;SDS011;61064;51.654;5.476;2023-06-04T05:04:49;5.77;;;1.50;;
72920;SDS011;61064;51.654;5.476;2023-06-04T05:07:15;6.93;;;1.67;;
72920;SDS011;61064;51.654;5.476;2023-06-04T05:09:40;6.20;;;1.80;;
72920;SDS011;61064;51.654;5.476;2023-06-04T05:12:06;6.43;;;1.50;;
72920;SDS011;61064;51.654;5.476;2023-06-04T05:14:31;7.07;;;1.60;;
72920;SDS011;61064;51.654;5.476;2023-06-04T05:17:00;5.57;;;1.50;;
72920;SDS011;61064;51.654;5.476;2023-06-04T05:19:28;6.22;;;1.60;;
72920;SDS011;61064;51.654;5.476;2023-06-04T05:21:53;7.70;;;2.30;;
72920;SDS011;61064;51.654;5.476;2023-06-04T05:24:19;7.22;;;1.70;;
72920;SDS011;61064;51.654;5.476;2023-06-04T05:26:44;7.00;;;1.57;;
72920;SDS011;61064;51.654;5.476;2023-06-04T05:29:10;7.17;;;1.87;;
72920;SDS011;61064;51.654;5.476;2023-06-04T05:31:35;5.07;;;1.50;;
72920;SDS011;61064;51.654;5.476;2023-06-04T05:34:02;6.10;;;1.80;;
72920;SDS011;61064;51.654;5.476;2023-06-04T05:36:29;8.27;;;1.50;;
72920;SDS011;61064;51.654;5.476;2023-06-04T05:38:56;5.90;;;1.75;;
72920;SDS011;61064;51.654;5.476;2023-06-04T05:41:24;5.82;;;2.05;;
72920;SDS011;61064;51.654;5.476;2023-06-04T05:43:50;6.63;;;1.77;;
72920;SDS011;61064;51.654;5.476;2023-06-04T05:46:16;5.97;;;1.57;;
72920;SDS011;61064;51.654;5.476;2023-06-04T05:48:42;6.40;;;1.80;;
72920;SDS011;61064;51.654;5.476;2023-06-04T05:51:07;6.60;;;1.70;;
72920;SDS011;61064;51.654;5.476;2023-06-04T05:53:32;5.63;;;1.70;;
72920;SDS011;61064;51.654;5.476;2023-06-04T05:55:58;5.83;;;1.40;;
72920;SDS011;61064;51.654;5.476;2023-06-04T05:58:23;6.97;;;1.60;;
72920;SDS011;61064;51.654;5.476;2023-06-04T06:00:49;7.17;;;2.10;;
72920;SDS011;61064;51.654;5.476;2023-06-04T06:03:15;7.80;;;1.60;;
72920;SDS011;61064;51.654;5.476;2023-06-04T06:05:41;6.80;;;1.60;;
72920;SDS011;61064;51.654;5.476;2023-06-04T06:08:07;7.13;;;1.55;;
72920;SDS011;61064;51.654;5.476;2023-06-04T06:10:33;5.73;;;1.53;;
72920;SDS011;61064;51.654;5.476;2023-06-04T06:12:58;5.63;;;1.50;;
72920;SDS011;61064;51.654;5.476;2023-06-04T06:15:25;6.90;;;1.58;;
72920;SDS011;61064;51.654;5.476;2023-06-04T06:17:51;6.15;;;1.50;;
72920;SDS011;61064;51.654;5.476;2023-06-04T06:20:17;6.73;;;1.60;;
72920;SDS011;61064;51.654;5.476;2023-06-04T06:22:43;5.68;;;1.77;;
72920;SDS011;61064;51.654;5.476;2023-06-04T06:25:09;5.77;;;1.90;;
72920;SDS011;61064;51.654;5.476;2023-06-04T06:27:38;5.53;;;1.58;;
72920;SDS011;61064;51.654;5.476;2023-06-04T06:30:05;6.47;;;1.63;;
72920;SDS011;61064;51.654;5.476;2023-06-04T06:32:34;7.03;;;1.55;;
72920;SDS011;61064;51.654;5.476;2023-06-04T06:35:00;9.77;;;1.70;;
72920;SDS011;61064;51.654;5.476;2023-06-04T06:37:26;5.60;;;1.50;;
72920;SDS011;61064;51.654;5.476;2023-06-04T06:39:51;7.67;;;1.83;;
72920;SDS011;61064;51.654;5.476;2023-06-04T06:42:16;7.17;;;1.70;;
72920;SDS011;61064;51.654;5.476;2023-06-04T06:44:44;8.77;;;1.50;;
72920;SDS011;61064;51.654;5.476;2023-06-04T06:47:12;6.95;;;1.70;;
72920;SDS011;61064;51.654;5.476;2023-06-04T06:49:40;9.23;;;3.13;;
72920;SDS011;61064;51.654;5.476;2023-06-04T06:52:06;5.77;;;1.73;;
72920;SDS011;61064;51.654;5.476;2023-06-04T06:54:31;6.97;;;1.63;;
72920;SDS011;61064;51.654;5.476;2023-06-04T06:56:57;6.63;;;1.50;;
72920;SDS011;61064;51.654;5.476;2023-06-04T06:59:23;8.55;;;2.10;;
72920;SDS011;61064;51.654;5.476;2023-06-04T07:01:48;12.00;;;2.50;;
72920;SDS011;61064;51.654;5.476;2023-06-04T07:04:14;6.60;;;1.70;;
72920;SDS011;61064;51.654;5.476;2023-06-04T07:06:39;6.17;;;1.53;;
72920;SDS011;61064;51.654;5.476;2023-06-04T07:09:04;7.47;;;1.60;;
72920;SDS011;61064;51.654;5.476;2023-06-04T07:11:31;7.35;;;1.50;;
72920;SDS011;61064;51.654;5.476;2023-06-04T07:13:56;6.28;;;1.38;;
72920;SDS011;61064;51.654;5.476;2023-06-04T07:16:21;7.37;;;1.60;;
72920;SDS011;61064;51.654;5.476;2023-06-04T07:18:47;7.27;;;1.93;;
72920;SDS011;61064;51.654;5.476;2023-06-04T07:21:14;5.43;;;1.50;;
72920;SDS011;61064;51.654;5.476;2023-06-04T07:23:40;6.57;;;1.47;;
72920;SDS011;61064;51.654;5.476;2023-06-04T07:26:05;6.40;;;1.77;;
72920;SDS011;61064;51.654;5.476;2023-06-04T07:28:31;5.30;;;1.60;;
72920;SDS011;61064;51.654;5.476;2023-06-04T07:30:57;5.83;;;1.63;;
72920;SDS011;61064;51.654;5.476;2023-06-04T07:33:24;6.10;;;1.70;;
72920;SDS011;61064;51.654;5.476;2023-06-04T07:35:50;7.13;;;1.85;;
72920;SDS011;61064;51.654;5.476;2023-06-04T07:38:15;10.07;;;1.60;;
72920;SDS011;61064;51.654;5.476;2023-06-04T07:40:41;5.38;;;1.48;;
72920;SDS011;61064;51.654;5.476;2023-06-04T07:43:06;5.60;;;1.57;;
72920;SDS011;61064;51.654;5.476;2023-06-04T07:45:32;5.07;;;1.42;;
72920;SDS011;61064;51.654;5.476;2023-06-04T07:47:57;5.70;;;1.50;;
72920;SDS011;61064;51.654;5.476;2023-06-04T07:50:23;5.40;;;1.23;;
72920;SDS011;61064;51.654;5.476;2023-06-04T07:52:49;6.43;;;1.40;;
72920;SDS011;61064;51.654;5.476;2023-06-04T07:55:15;6.83;;;1.50;;
72920;SDS011;61064;51.654;5.476;2023-06-04T07:57:40;5.00;;;1.50;;
72920;SDS011;61064;51.654;5.476;2023-06-04T08:00:06;5.30;;;1.30;;
72920;SDS011;61064;51.654;5.476;2023-06-04T08:02:33;6.43;;;1.40;;
72920;SDS011;61064;51.654;5.476;2023-06-04T08:04:58;5.47;;;1.20;;
72920;SDS011;61064;51.654;5.476;2023-06-04T08:07:24;8.02;;;1.40;;
72920;SDS011;61064;51.654;5.476;2023-06-04T08:09:50;5.87;;;1.70;;
72920;SDS011;61064;51.654;5.476;2023-06-04T08:12:15;5.97;;;1.50;;
72920;SDS011;61064;51.654;5.476;2023-06-04T08:14:41;7.82;;;1.70;;
72920;SDS011;61064;51.654;5.476;2023-06-04T08:17:06;5.77;;;1.60;;
72920;SDS011;61064;51.654;5.476;2023-06-04T08:19:32;5.13;;;1.50;;
72920;SDS011;61064;51.654;5.476;2023-06-04T08:21:57;5.20;;;1.30;;
72920;SDS011;61064;51.654;5.476;2023-06-04T08:24:23;6.40;;;1.60;;
72920;SDS011;61064;51.654;5.476;2023-06-04T08:26:48;8.20;;;2.30;;
72920;SDS011;61064;51.654;5.476;2023-06-04T08:29:15;6.78;;;1.60;;
72920;SDS011;61064;51.654;5.476;2023-06-04T08:31:40;5.90;;;1.50;;
72920;SDS011;61064;51.654;5.476;2023-06-04T08:34:06;5.70;;;1.20;;
72920;SDS011;61064;51.654;5.476;2023-06-04T08:36:31;7.47;;;1.63;;
72920;SDS011;61064;51.654;5.476;2023-06-04T08:39:00;5.05;;;1.30;;
72920;SDS011;61064;51.654;5.476;2023-06-04T08:41:45;6.80;;;1.40;;
72920;SDS011;61064;51.654;5.476;2023-06-04T08:44:13;5.07;;;1.25;;
72920;SDS011;61064;51.654;5.476;2023-06-04T08:46:41;6.63;;;1.40;;
72920;SDS011;61064;51.654;5.476;2023-06-04T08:49:08;5.05;;;1.40;;
72920;SDS011;61064;51.654;5.476;2023-06-04T08:51:37;4.65;;;1.20;;
72920;SDS011;61064;51.654;5.476;2023-06-04T08:54:05;4.73;;;0.90;;
72920;SDS011;61064;51.654;5.476;2023-06-04T08:56:32;3.97;;;1.00;;
72920;SDS011;61064;51.654;5.476;2023-06-04T08:59:00;6.68;;;1.40;;
72920;SDS011;61064;51.654;5.476;2023-06-04T09:01:31;4.82;;;1.25;;
72920;SDS011;61064;51.654;5.476;2023-06-04T09:03:59;5.05;;;1.35;;
72920;SDS011;61064;51.654;5.476;2023-06-04T09:06:26;5.90;;;1.07;;
72920;SDS011;61064;51.654;5.476;2023-06-04T09:08:51;4.57;;;0.80;;
72920;SDS011;61064;51.654;5.476;2023-06-04T09:11:21;3.90;;;0.90;;
72920;SDS011;61064;51.654;5.476;2023-06-04T09:13:48;5.50;;;1.20;;
72920;SDS011;61064;51.654;5.476;2023-06-04T09:16:16;4.35;;;1.00;;
72920;SDS011;61064;51.654;5.476;2023-06-04T09:18:41;4.00;;;0.90;;
72920;SDS011;61064;51.654;5.476;2023-06-04T09:21:07;4.72;;;1.08;;
72920;SDS011;61064;51.654;5.476;2023-06-04T09:23:37;5.05;;;1.13;;
72920;SDS011;61064;51.654;5.476;2023-06-04T09:26:09;5.20;;;1.00;;
72920;SDS011;61064;51.654;5.476;2023-06-04T09:28:36;4.57;;;1.00;;
72920;SDS011;61064;51.654;5.476;2023-06-04T09:31:14;4.70;;;1.05;;
72920;SDS011;61064;51.654;5.476;2023-06-04T09:33:44;5.93;;;1.30;;
72920;SDS011;61064;51.654;5.476;2023-06-04T09:36:18;5.00;;;1.00;;
72920;SDS011;61064;51.654;5.476;2023-06-04T09:38:43;5.27;;;0.90;;
72920;SDS011;61064;51.654;5.476;2023-06-04T09:41:12;5.67;;;1.10;;
72920;SDS011;61064;51.654;5.476;2023-06-04T09:43:39;5.38;;;1.10;;
72920;SDS011;61064;51.654;5.476;2023-06-04T09:46:12;3.85;;;0.95;;
72920;SDS011;61064;51.654;5.476;2023-06-04T09:48:38;3.83;;;0.80;;
72920;SDS011;61064;51.654;5.476;2023-06-04T09:51:08;4.65;;;0.90;;
72920;SDS011;61064;51.654;5.476;2023-06-04T09:53:35;5.13;;;0.95;;
72920;SDS011;61064;51.654;5.476;2023-06-04T09:56:01;6.40;;;1.00;;
72920;SDS011;61064;51.654;5.476;2023-06-04T09:58:28;3.45;;;0.80;;
72920;SDS011;61064;51.654;5.476;2023-06-04T10:00:55;3.53;;;0.90;;
72920;SDS011;61064;51.654;5.476;2023-06-04T10:03:23;2.80;;;0.68;;
72920;SDS011;61064;51.654;5.476;2023-06-04T10:05:52;4.68;;;0.80;;
72920;SDS011;61064;51.654;5.476;2023-06-04T10:08:19;4.65;;;0.95;;
72920;SDS011;61064;51.654;5.476;2023-06-04T10:10:50;5.10;;;0.90;;
72920;SDS011;61064;51.654;5.476;2023-06-04T10:13:17;3.73;;;0.80;;
72920;SDS011;61064;51.654;5.476;2023-06-04T10:15:47;4.03;;;0.88;;
72920;SDS011;61064;51.654;5.476;2023-06-04T10:18:14;4.68;;;1.00;;
72920;SDS011;61064;51.654;5.476;2023-06-04T10:20:41;3.40;;;0.85;;
72920;SDS011;61064;51.654;5.476;2023-06-04T10:23:06;5.07;;;1.00;;
72920;SDS011;61064;51.654;5.476;2023-06-04T10:25:34;3.90;;;0.90;;
72920;SDS011;61064;51.654;5.476;2023-06-04T10:28:01;4.15;;;1.00;;
72920;SDS011;61064;51.654;5.476;2023-06-04T10:30:28;4.97;;;0.70;;
72920;SDS011;61064;51.654;5.476;2023-06-04T10:32:57;5.07;;;0.90;;
72920;SDS011;61064;51.654;5.476;2023-06-04T10:35:30;3.90;;;0.73;;
72920;SDS011;61064;51.654;5.476;2023-06-04T10:38:30;3.70;;;0.73;;
72920;SDS011;61064;51.654;5.476;2023-06-04T10:40:49;4.82;;;1.00;;
72920;SDS011;61064;51.654;5.476;2023-06-04T10:43:15;3.40;;;0.80;;
72920;SDS011;61064;51.654;5.476;2023-06-04T10:45:41;3.87;;;0.90;;
72920;SDS011;61064;51.654;5.476;2023-06-04T10:48:09;5.28;;;0.90;;
72920;SDS011;61064;51.654;5.476;2023-06-04T10:50:46;3.75;;;0.90;;
72920;SDS011;61064;51.654;5.476;2023-06-04T10:53:13;3.33;;;0.90;;
72920;SDS011;61064;51.654;5.476;2023-06-04T10:55:45;3.73;;;0.80;;
72920;SDS011;61064;51.654;5.476;2023-06-04T10:58:12;3.65;;;0.90;;
72920;SDS011;61064;51.654;5.476;2023-06-04T11:00:41;3.67;;;0.93;;
72920;SDS011;61064;51.654;5.476;2023-06-04T11:03:11;5.72;;;0.90;;
72920;SDS011;61064;51.654;5.476;2023-06-04T11:05:41;4.37;;;0.90;;
72920;SDS011;61064;51.654;5.476;2023-06-04T11:08:08;5.28;;;0.98;;
72920;SDS011;61064;51.654;5.476;2023-06-04T11:10:37;4.18;;;0.90;;
72920;SDS011;61064;51.654;5.476;2023-06-04T11:13:05;5.15;;;1.00;;
72920;SDS011;61064;51.654;5.476;2023-06-04T11:15:37;5.20;;;0.90;;
72920;SDS011;61064;51.654;5.476;2023-06-04T11:18:06;5.40;;;0.85;;
72920;SDS011;61064;51.654;5.476;2023-06-04T11:20:32;5.40;;;1.10;;
72920;SDS011;61064;51.654;5.476;2023-06-04T11:22:58;3.77;;;0.90;;
72920;SDS011;61064;51.654;5.476;2023-06-04T11:25:26;4.63;;;0.90;;
72920;SDS011;61064;51.654;5.476;2023-06-04T11:27:54;7.70;;;0.90;;
72920;SDS011;61064;51.654;5.476;2023-06-04T11:30:20;6.53;;;1.02;;
72920;SDS011;61064;51.654;5.476;2023-06-04T11:32:47;5.97;;;1.00;;
72920;SDS011;61064;51.654;5.476;2023-06-04T11:35:12;3.33;;;0.83;;
72920;SDS011;61064;51.654;5.476;2023-06-04T11:37:38;4.73;;;0.90;;
72920;SDS011;61064;51.654;5.476;2023-06-04T11:40:17;3.88;;;1.20;;
72920;SDS011;61064;51.654;5.476;2023-06-04T11:42:44;4.20;;;1.00;;
72920;SDS011;61064;51.654;5.476;2023-06-04T11:45:14;3.42;;;1.05;;
72920;SDS011;61064;51.654;5.476;2023-06-04T11:47:49;5.00;;;1.07;;
72920;SDS011;61064;51.654;5.476;2023-06-04T11:50:16;4.80;;;1.02;;
72920;SDS011;61064;51.654;5.476;2023-06-04T11:52:42;6.43;;;1.02;;
72920;SDS011;61064;51.654;5.476;2023-06-04T11:55:08;3.87;;;1.00;;
72920;SDS011;61064;51.654;5.476;2023-06-04T11:57:37;4.47;;;0.93;;
72920;SDS011;61064;51.654;5.476;2023-06-04T12:00:03;3.55;;;0.88;;
72920;SDS011;61064;51.654;5.476;2023-06-04T12:02:36;3.80;;;1.00;;
72920;SDS011;61064;51.654;5.476;2023-06-04T12:05:16;5.15;;;1.10;;
72920;SDS011;61064;51.654;5.476;2023-06-04T12:07:52;7.07;;;1.30;;
72920;SDS011;61064;51.654;5.476;2023-06-04T12:10:28;4.70;;;1.20;;
72920;SDS011;61064;51.654;5.476;2023-06-04T12:13:11;3.85;;;1.10;;
72920;SDS011;61064;51.654;5.476;2023-06-04T12:15:39;5.20;;;1.15;;
72920;SDS011;61064;51.654;5.476;2023-06-04T12:18:05;7.47;;;2.95;;
72920;SDS011;61064;51.654;5.476;2023-06-04T12:20:37;5.83;;;1.20;;
72920;SDS011;61064;51.654;5.476;2023-06-04T12:23:04;7.50;;;1.23;;
72920;SDS011;61064;51.654;5.476;2023-06-04T12:25:31;4.50;;;1.33;;
72920;SDS011;61064;51.654;5.476;2023-06-04T12:28:02;5.88;;;1.20;;
72920;SDS011;61064;51.654;5.476;2023-06-04T12:30:40;5.00;;;1.20;;
72920;SDS011;61064;51.654;5.476;2023-06-04T12:33:05;5.13;;;1.20;;
72920;SDS011;61064;51.654;5.476;2023-06-04T12:35:31;6.00;;;1.30;;
72920;SDS011;61064;51.654;5.476;2023-06-04T12:37:57;4.18;;;1.30;;
72920;SDS011;61064;51.654;5.476;2023-06-04T12:40:25;5.93;;;1.20;;
72920;SDS011;61064;51.654;5.476;2023-06-04T12:42:52;4.38;;;0.90;;
72920;SDS011;61064;51.654;5.476;2023-06-04T12:45:18;3.80;;;1.00;;
72920;SDS011;61064;51.654;5.476;2023-06-04T12:47:47;4.28;;;1.10;;
72920;SDS011;61064;51.654;5.476;2023-06-04T12:50:12;4.40;;;1.27;;
72920;SDS011;61064;51.654;5.476;2023-06-04T12:52:39;4.53;;;1.30;;
72920;SDS011;61064;51.654;5.476;2023-06-04T12:55:06;4.63;;;1.13;;
72920;SDS011;61064;51.654;5.476;2023-06-04T12:57:36;5.72;;;1.20;;
72920;SDS011;61064;51.654;5.476;2023-06-04T13:00:01;4.78;;;1.20;;
72920;SDS011;61064;51.654;5.476;2023-06-04T13:02:29;4.50;;;1.20;;
72920;SDS011;61064;51.654;5.476;2023-06-04T13:04:57;4.57;;;1.05;;
72920;SDS011;61064;51.654;5.476;2023-06-04T13:07:27;4.60;;;1.00;;
72920;SDS011;61064;51.654;5.476;2023-06-04T13:09:58;4.87;;;1.10;;
72920;SDS011;61064;51.654;5.476;2023-06-04T13:12:29;3.92;;;1.10;;
72920;SDS011;61064;51.654;5.476;2023-06-04T13:14:55;7.38;;;1.20;;
72920;SDS011;61064;51.654;5.476;2023-06-04T13:17:20;3.83;;;1.00;;
72920;SDS011;61064;51.654;5.476;2023-06-04T13:19:46;4.65;;;1.13;;
72920;SDS011;61064;51.654;5.476;2023-06-04T13:22:11;4.00;;;1.20;;
72920;SDS011;61064;51.654;5.476;2023-06-04T13:24:38;3.97;;;1.13;;
72920;SDS011;61064;51.654;5.476;2023-06-04T13:27:07;4.18;;;1.20;;
72920;SDS011;61064;51.654;5.476;2023-06-04T13:29:34;3.70;;;1.10;;
72920;SDS011;61064;51.654;5.476;2023-06-04T13:32:00;7.55;;;1.30;;
72920;SDS011;61064;51.654;5.476;2023-06-04T13:34:26;5.27;;;1.30;;
72920;SDS011;61064;51.654;5.476;2023-06-04T13:36:51;5.77;;;1.10;;
72920;SDS011;61064;51.654;5.476;2023-06-04T13:39:16;5.17;;;1.20;;
72920;SDS011;61064;51.654;5.476;2023-06-04T13:41:42;5.43;;;1.10;;
72920;SDS011;61064;51.654;5.476;2023-06-04T13:44:07;5.17;;;1.30;;
72920;SDS011;61064;51.654;5.476;2023-06-04T13:46:33;5.22;;;1.42;;
72920;SDS011;61064;51.654;5.476;2023-06-04T13:48:58;6.10;;;1.37;;
72920;SDS011;61064;51.654;5.476;2023-06-04T13:51:25;5.70;;;1.60;;
72920;SDS011;61064;51.654;5.476;2023-06-04T13:53:52;5.10;;;1.38;;
72920;SDS011;61064;51.654;5.476;2023-06-04T13:56:18;4.88;;;1.30;;
72920;SDS011;61064;51.654;5.476;2023-06-04T13:58:44;6.10;;;1.40;;
72920;SDS011;61064;51.654;5.476;2023-06-04T14:01:10;4.30;;;1.20;;
72920;SDS011;61064;51.654;5.476;2023-06-04T14:03:35;6.00;;;1.20;;
72920;SDS011;61064;51.654;5.476;2023-06-04T14:06:00;5.40;;;1.30;;
72920;SDS011;61064;51.654;5.476;2023-06-04T14:08:26;4.67;;;1.30;;
72920;SDS011;61064;51.654;5.476;2023-06-04T14:10:53;5.03;;;1.50;;
72920;SDS011;61064;51.654;5.476;2023-06-04T14:13:20;4.18;;;1.20;;
72920;SDS011;61064;51.654;5.476;2023-06-04T14:15:45;4.40;;;1.30;;
72920;SDS011;61064;51.654;5.476;2023-06-04T14:18:10;5.25;;;1.40;;
72920;SDS011;61064;51.654;5.476;2023-06-04T14:20:36;6.50;;;1.20;;
72920;SDS011;61064;51.654;5.476;2023-06-04T14:23:01;4.47;;;1.30;;
72920;SDS011;61064;51.654;5.476;2023-06-04T14:25:27;4.97;;;1.40;;
72920;SDS011;61064;51.654;5.476;2023-06-04T14:27:52;5.30;;;1.23;;
72920;SDS011;61064;51.654;5.476;2023-06-04T14:30:18;5.50;;;1.30;;
72920;SDS011;61064;51.654;5.476;2023-06-04T14:32:43;4.60;;;1.20;;
72920;SDS011;61064;51.654;5.476;2023-06-04T14:35:09;4.63;;;1.40;;
72920;SDS011;61064;51.654;5.476;2023-06-04T14:37:34;4.33;;;1.27;;
72920;SDS011;61064;51.654;5.476;2023-06-04T14:40:00;4.37;;;1.27;;
72920;SDS011;61064;51.654;5.476;2023-06-04T14:42:25;5.43;;;1.27;;
72920;SDS011;61064;51.654;5.476;2023-06-04T14:44:50;5.27;;;1.30;;
72920;SDS011;61064;51.654;5.476;2023-06-04T14:47:16;5.17;;;1.47;;
72920;SDS011;61064;51.654;5.476;2023-06-04T14:49:41;4.80;;;1.33;;
72920;SDS011;61064;51.654;5.476;2023-06-04T14:52:09;6.27;;;1.53;;
72920;SDS011;61064;51.654;5.476;2023-06-04T14:54:34;5.80;;;1.70;;